Go Pro

Cal-Maine Foods (CALM) Institutional Ownership

Cal-Maine Foods logo
$76.03 -2.79 (-3.54%)
As of 04:00 PM Eastern

Institutional Ownership Changes (13F Filings) for Cal-Maine Foods (NASDAQ:CALM)

Current
Institutional Ownership
Percentage
84.67%
Number of
Institutional Buyers
(last 12 months)
299
Total
Institutional Inflows
(last 12 months)
$1.01B
Number of
Institutional Sellers
(last 12 months)
200
Total
Institutional Outflows
(last 12 months)
$572.40M
Get CALM Insider Trade Alerts

Want to know when executives and insiders are buying or selling Cal-Maine Foods stock? Sign up for InsiderTrades.com's daily newsletter to get the latest insider transactions delivered to your inbox daily.

SMS is currently available in Australia, Belgium, Canada, France, Germany, Ireland, Italy, New Zealand, the Netherlands, Singapore, South Africa, Spain, Switzerland, the United Kingdom, and the United States. By entering your phone number and clicking the sign-up button, you agree to receive periodic text messages from MarketBeat at the phone number you submitted, including texts that may be sent using an automatic telephone dialing system. Message and data rates may apply. Message frequency will vary. Messages will consist of stock alerts, news stories, and partner advertisements/offers. Consent is not a condition of the purchase of any goods or services. Text HELP for help/customer support. Unsubscribe at any time by replying "STOP" to any text message that you receive from MarketBeat or by visiting our mailing preferences page. Read our full terms of service and privacy policy.
Skip Chart & View Institutional Buying and Selling Data

CALM Institutional Buying and Selling by Quarter

Cal-Maine Foods Major Shareholders & Ownership History

Reporting DateMajor Shareholder NameShares HeldMarket Value% of PortfolioQuarterly Change in SharesOwnership in CompanyDetails
8/27/2026 Corient Private Wealth LP640,662$51.61M0.1%-1.4%1.366%
8/25/2026 VIRGINIA RETIREMENT SYSTEMS ET Al39,495$3.18M0.0%N/A0.084%
8/24/2026 California State Teachers Retirement System4,007,941$322.88M0.0%+7,727.9%8.542%
8/22/2026 Compass Financial Management LLC1,800$153K0.0%N/A0.004%
8/21/2026 AXQ Capital LP2,491$201K0.0%-34.6%0.005%
8/21/2026 Nykredit A S2,229$180K0.0%N/A0.005%
8/20/2026 Wedbush Securities Inc.3,683$297K0.0%-10.4%0.008%
8/19/2026 Navellier & Associates Inc.33,262$2.68M0.2%+0.7%0.071%
8/17/2026 Parvin Asset Management LLC3,440$277K0.2%N/A0.007%
8/14/2026 Front Street Capital Management Inc.8,740$746K0.1%N/A0.019%
8/13/2026 Pinnacle Holdings LLC382$31K0.0%N/A0.001%
8/12/2026 Compass Financial Management LLC1,800$153K0.0%N/A0.004%
8/8/2026 Foster & Motley Inc.6,539$527K0.0%N/A0.014%
8/6/2026 Bank of New York Mellon Corp718,648$57.89M0.0%N/A1.532%
7/10/2026 Wedge Capital Management L L P NC29,601$2.39M0.0%+20.1%0.062%
7/9/2026 Hennion & Walsh Asset Management Inc.39,464$3.18M0.1%-12.5%0.083%
7/8/2026 Eldred Rock Partners LLC132,449$10.67M2.3%+6.8%0.280%
7/8/2026 Assenagon Asset Management S.A.43,102$3.47M0.0%+3.9%0.091%
7/7/2026 GAMMA Investing LLC3,249$262K0.0%+12.4%0.007%
7/7/2026 CoreCap Advisors LLC1,153$93K0.0%+13.5%0.002%
7/2/2026 CX Institutional79,091$6.37M0.2%+7.0%0.167%
7/1/2026 Roxbury Financial LLC7,153$576K0.5%N/A0.015%
6/18/2026 Pacer Advisors Inc.364,110$28.82M0.0%-13.1%0.768%
6/16/2026 Empowered Funds LLC94,199$7.46M0.0%-57.3%0.199%
6/3/2026 NewEdge Advisors LLC4,100$325K0.0%-83.4%0.009%
5/28/2026 Cozad Asset Management Inc.32,655$2.59M0.2%+2.3%0.069%
5/22/2026 Segall Bryant & Hamill LLC46,408$3.67M0.0%-4.8%0.098%
5/19/2026 Bank of America Corp DE505,359$40.00M0.0%+21.9%1.067%
5/19/2026 Edgestream Partners L.P.154,627$12.24M0.4%+64.4%0.326%
5/19/2026Janus Henderson Group PLC353,751$28.00M0.0%+68.8%0.747%
5/18/2026 Amundi12,314$975K0.0%+101.3%0.026%
5/18/2026 Parvin Asset Management LLC3,435$272K0.2%+26.5%0.007%
5/18/2026 EverSource Wealth Advisors LLC6,599$522K0.0%+712.7%0.014%
5/18/2026 California State Teachers Retirement System51,201$4.05M0.0%+24.6%0.108%
5/18/2026 Royal Bank of Canada158,508$12.55M0.0%-16.5%0.335%
5/18/2026 Empowered Funds LLC94,199$7.46M0.0%-57.3%0.199%
5/16/2026 The Manufacturers Life Insurance Company20,799$1.65M0.0%-10.6%0.044%
5/16/2026 Quantinno Capital Management LP10,489$830K0.0%+5.4%0.022%
5/16/2026 Hound Partners LLC203,851$16.14M2.0%+163.6%0.430%
5/16/2026 SummitTX Capital L.P.20,417$1.62M0.1%+29.1%0.043%
Your book attached (Ad)

Bill Poulos is giving away his 'Safe Trade Options Formula' book for free - but only for a limited time through a temporary download link. He plans to charge for it soon. Download your copy now and lock it in at no cost, regardless of future pricing.tc pixel

Download the Safe Trade Options Formula book for free before access closes
5/16/2026 Lazard Asset Management LLC7,260$575K0.0%-9.2%0.015%
5/15/2026 Cypress Capital Group26,059$2.06M0.2%+10.6%0.055%
5/15/2026 OMERS ADMINISTRATION Corp51,507$4.08M0.0%+52.1%0.109%
5/15/2026 Lombard Odier Asset Management USA Corp3,573$283K0.0%N/A0.008%
5/15/2026 Entropy Technologies LP4,128$327K0.0%N/A0.009%
5/14/2026 Renaissance Technologies LLC1,778,468$140.77M0.2%-5.5%3.754%
5/14/2026 Caxton Associates LLP4,664$369K0.0%-37.2%0.010%
5/14/2026 Sei Investments Co.47,700$3.78M0.0%+6.1%0.101%
5/14/2026 Keynote Financial Services LLC5,087$403K0.2%N/A0.011%
5/14/2026 State of Wyoming2,007$159K0.0%-6.8%0.004%
5/13/2026 Cetera Investment Advisers44,621$3.53M0.0%+36.3%0.094%
5/13/2026 Measured Wealth Private Client Group LLC391$31K0.0%-86.5%0.001%
5/13/2026 First Citizens Bank & Trust Co.7,362$583K0.0%-8.5%0.016%
5/13/2026 First Trust Advisors LP1,552,297$122.86M0.1%+29.7%3.276%
5/12/2026 Himension Capital Singapore PTE. LTD.1,398$111K0.0%N/A0.003%
5/12/2026 Cadence Wealth Management LLC10,686$846K0.4%+189.4%0.023%
5/8/2026 PNC Financial Services Group Inc.5,255$416K0.0%+95.4%0.011%
5/8/2026 Summit Global Investments11,644$922K0.1%-1.9%0.025%
5/7/2026 Florida Financial Advisors LLC3,946$312K0.1%N/A0.008%
5/7/2026 Meeder Asset Management Inc.31,617$2.50M0.1%+11.2%0.067%
5/7/2026 Dimensional Fund Advisors LP2,519,483$199.42M0.0%+13.6%5.318%
5/7/2026 Parallel Advisors LLC1,417$112K0.0%-34.2%0.003%
5/7/2026 KBC Group NV3,467$274K0.0%-75.2%0.007%
5/7/2026 Swiss National Bank84,800$6.71M0.0%-1.5%0.179%
5/6/2026 Assetmark Inc.130,641$10.34M0.0%+10.0%0.276%
5/6/2026 Gallacher Capital Management LLC6,047$479K0.2%+21.7%0.013%
5/6/2026 Bessemer Group Inc.59,116$4.68M0.0%+60.3%0.125%
5/6/2026 Allspring Global Investments Holdings LLC87,853$7.32M0.0%+10.4%0.185%
5/6/2026 Independent Financial Group LLC15,089$1.19M0.0%N/A0.032%
5/5/2026 Bank of New York Mellon Corp697,727$55.23M0.0%-8.1%1.473%
5/5/2026 Illinois Municipal Retirement Fund22,847$1.81M0.0%-4.3%0.048%
5/5/2026 Geneos Wealth Management Inc.650$51K0.0%-77.6%0.001%
5/5/2026 Maryland State Retirement & Pension System6,514$516K0.0%-2.1%0.014%
5/4/2026 Empirical Financial Services LLC d.b.a. Empirical Wealth Management4,774$378K0.0%+28.2%0.010%
5/4/2026 Principal Financial Group Inc.308,580$24.42M0.0%+5.8%0.651%
5/1/2026 Commonwealth of Pennsylvania Public School Empls Retrmt SYS11,077$877K0.0%-1.9%0.023%
5/1/2026 Fifth Third Bancorp46,799$3.70M0.0%+11,570.6%0.099%
5/1/2026 Sequoia Financial Advisors LLC5,540$438K0.0%+77.1%0.012%
4/30/2026 Costello Asset Management INC3,445$273K0.1%+83.7%0.007%
4/30/2026 Hsbc Holdings PLC9,847$777K0.0%-81.6%0.021%
4/30/2026 Sumitomo Mitsui Trust Group Inc.6,111$484K0.0%+111.8%0.013%
4/30/2026 Oregon Public Employees Retirement Fund10,223$809K0.0%-1.9%0.022%
4/29/2026 Burney Co.21,079$1.67M0.1%-70.1%0.044%
4/29/2026 Integrated Advisors Network LLC5,038$399K0.0%N/A0.011%
4/28/2026 Abel Hall LLC2,768$219K0.0%N/A0.006%
4/28/2026DGS Capital Management LLC2,932$232K0.0%+6.7%0.006%
4/28/2026 Stephens Inc. AR17,477$1.38M0.0%N/A0.037%
4/28/2026 QRG Capital Management Inc.6,623$524K0.0%N/A0.014%
4/27/2026 New York State Teachers Retirement System49,805$3.94M0.0%-2.9%0.105%
4/27/2026 Private Advisor Group LLC6,215$492K0.0%+4.2%0.013%
ALERT: Drop these 5 stocks before the market opens tomorrow! (Ad)

The Wall Street Journal is already raising the alarm about a potential market crash, and Weiss Ratings research points to the first half of 2026 as a particularly rough stretch for certain holdings. Some of America's most popular stocks could take serious damage as a radical market shift plays out. Analysts at Weiss Ratings have identified five names you may want to remove from your portfolio before this unfolds. If any of these are in your portfolio, now is the time to review your positions.tc pixel

4/27/2026 Y Intercept Hong Kong Ltd15,406$1.22M0.0%-86.4%0.033%
4/27/2026 Leonteq Securities AG822$65K0.0%-17.1%0.002%
4/27/2026 Jamison Private Wealth Management Inc.4,015$318K0.0%N/A0.008%
4/25/2026 Strs Ohio1,700$135K0.0%-76.4%0.004%
4/24/2026 Stegent Equity Advisors Inc.5,279$418K0.4%+4.0%0.011%
4/23/2026 Inspire Investing LLC6,538$517K0.0%+11.5%0.014%
4/22/2026 Janney Montgomery Scott LLC26,894$2.13M0.0%+18.8%0.057%
4/22/2026 Pictet Asset Management Holding SA6,710$531K0.0%+10.5%0.014%
4/21/2026 Foster & Motley Inc.9,308$737K0.0%-2.8%0.020%
4/21/2026 Louisiana State Employees Retirement System19,900$1.58M0.0%N/A0.042%


CALM Institutional Ownership - Frequently Asked Questions

During the previous two years, 519 institutional investors and hedge funds held shares of Cal-Maine Foods. The most heavily invested institutionals were Vanguard Group Inc. ($393.37M), California State Teachers Retirement System ($322.88M), Dimensional Fund Advisors LP ($199.42M), American Century Companies Inc. ($152.30M), Renaissance Technologies LLC ($140.77M), State Street Corp ($134.23M), and First Trust Advisors LP ($122.86M).Learn more on Cal-Maine Foods' institutional investors.

84.67% of Cal-Maine Foods' stock is owned by institutional investors. Learn more on CALM's institutional investor holdings.

Of the 460 institutional investors that purchased Cal-Maine Foods' stock in the last 24 months, the following investors and hedge funds have bought the highest volume of shares: California State Teachers Retirement System ($3.97M), Bank of New York Mellon Corp ($1.03M), Jupiter Asset Management Ltd. ($744.23K), Millennium Management LLC ($693.53K), Northwestern Mutual Wealth Management Co. ($617.87K), Dimensional Fund Advisors LP ($506.98K), and American Century Companies Inc. ($495.06K).

Institutional investors have bought a total of 12,128,607 shares in the last 24 months. This purchase volume represents approximately $1.01B in transactions.

Of the 200 institutional investors that sold Cal-Maine Foods' stock in the last 24 months, the following investors and hedge funds have sold the highest volume of shares: Renaissance Technologies LLC ($582.31K), Goldman Sachs Group Inc. ($572.02K), Millennium Management LLC ($536.36K), First Trust Advisors LP ($355.81K), Empowered Funds LLC ($324.78K), BI Asset Management Fondsmaeglerselskab A S ($267.00K), and Bank of America Corp DE ($248.95K).

Institutional investors have sold a total of 6,778,694 shares in the last 24 months. This volume of shares sold represents approximately $572.40M in transactions.



Institutional ownership data for NASDAQ:CALM is compiled from quarterly 13F filings submitted to the U.S. Securities and Exchange Commission (SEC), with the most recent received on 8/27/2026. New 13F filings are added each quarter as they're published.
From Our Partners